sensor_id;sensor_type;location;lat;lon;timestamp;P1;durP1;ratioP1;P2;durP2;ratioP2
71975;SDS011;68326;52.124;5.424;2024-01-11T00:01:44;9.27;;;4.03;;
71975;SDS011;68326;52.124;5.424;2024-01-11T00:04:12;11.53;;;3.83;;
71975;SDS011;68326;52.124;5.424;2024-01-11T00:06:40;10.65;;;3.70;;
71975;SDS011;68326;52.124;5.424;2024-01-11T00:09:10;11.55;;;4.25;;
71975;SDS011;68326;52.124;5.424;2024-01-11T00:11:38;14.18;;;4.25;;
71975;SDS011;68326;52.124;5.424;2024-01-11T00:14:05;10.32;;;3.78;;
71975;SDS011;68326;52.124;5.424;2024-01-11T00:16:32;12.97;;;4.93;;
71975;SDS011;68326;52.124;5.424;2024-01-11T00:18:59;10.80;;;4.55;;
71975;SDS011;68326;52.124;5.424;2024-01-11T00:21:26;10.93;;;3.90;;
71975;SDS011;68326;52.124;5.424;2024-01-11T00:23:52;11.20;;;4.35;;
71975;SDS011;68326;52.124;5.424;2024-01-11T00:26:19;10.13;;;3.63;;
71975;SDS011;68326;52.124;5.424;2024-01-11T00:28:46;10.00;;;4.32;;
71975;SDS011;68326;52.124;5.424;2024-01-11T00:31:12;10.57;;;3.80;;
71975;SDS011;68326;52.124;5.424;2024-01-11T00:33:39;10.77;;;4.00;;
71975;SDS011;68326;52.124;5.424;2024-01-11T00:36:06;12.70;;;4.40;;
71975;SDS011;68326;52.124;5.424;2024-01-11T00:38:34;9.95;;;3.65;;
71975;SDS011;68326;52.124;5.424;2024-01-11T00:41:01;10.98;;;3.75;;
71975;SDS011;68326;52.124;5.424;2024-01-11T00:43:28;9.93;;;4.00;;
71975;SDS011;68326;52.124;5.424;2024-01-11T00:45:54;9.10;;;3.93;;
71975;SDS011;68326;52.124;5.424;2024-01-11T00:48:21;11.18;;;3.90;;
71975;SDS011;68326;52.124;5.424;2024-01-11T00:50:47;12.20;;;4.13;;
71975;SDS011;68326;52.124;5.424;2024-01-11T00:53:14;7.88;;;3.67;;
71975;SDS011;68326;52.124;5.424;2024-01-11T00:55:41;11.90;;;3.80;;
71975;SDS011;68326;52.124;5.424;2024-01-11T00:58:07;10.85;;;3.65;;
71975;SDS011;68326;52.124;5.424;2024-01-11T01:00:34;12.15;;;3.83;;
71975;SDS011;68326;52.124;5.424;2024-01-11T01:03:00;12.23;;;4.07;;
71975;SDS011;68326;52.124;5.424;2024-01-11T01:05:27;12.30;;;4.07;;
71975;SDS011;68326;52.124;5.424;2024-01-11T01:07:54;9.70;;;3.22;;
71975;SDS011;68326;52.124;5.424;2024-01-11T01:10:20;9.52;;;3.28;;
71975;SDS011;68326;52.124;5.424;2024-01-11T01:12:47;9.10;;;3.28;;
71975;SDS011;68326;52.124;5.424;2024-01-11T01:15:14;10.17;;;3.93;;
71975;SDS011;68326;52.124;5.424;2024-01-11T01:17:41;10.35;;;3.50;;
71975;SDS011;68326;52.124;5.424;2024-01-11T01:20:08;10.23;;;3.45;;
71975;SDS011;68326;52.124;5.424;2024-01-11T01:22:35;12.20;;;3.90;;
71975;SDS011;68326;52.124;5.424;2024-01-11T01:25:01;9.77;;;3.30;;
71975;SDS011;68326;52.124;5.424;2024-01-11T01:27:28;12.05;;;4.07;;
71975;SDS011;68326;52.124;5.424;2024-01-11T01:29:55;11.68;;;4.22;;
71975;SDS011;68326;52.124;5.424;2024-01-11T01:32:21;11.13;;;3.67;;
71975;SDS011;68326;52.124;5.424;2024-01-11T01:34:48;13.67;;;4.20;;
71975;SDS011;68326;52.124;5.424;2024-01-11T01:37:15;9.40;;;3.53;;
71975;SDS011;68326;52.124;5.424;2024-01-11T01:39:41;10.38;;;3.22;;
71975;SDS011;68326;52.124;5.424;2024-01-11T01:42:08;10.13;;;3.83;;
71975;SDS011;68326;52.124;5.424;2024-01-11T01:44:35;9.47;;;3.83;;
71975;SDS011;68326;52.124;5.424;2024-01-11T01:47:02;9.18;;;4.03;;
71975;SDS011;68326;52.124;5.424;2024-01-11T01:49:30;9.85;;;3.33;;
71975;SDS011;68326;52.124;5.424;2024-01-11T01:51:58;10.65;;;4.20;;
71975;SDS011;68326;52.124;5.424;2024-01-11T01:54:24;11.45;;;3.55;;
71975;SDS011;68326;52.124;5.424;2024-01-11T01:56:52;9.95;;;3.63;;
71975;SDS011;68326;52.124;5.424;2024-01-11T01:59:19;11.18;;;3.78;;
71975;SDS011;68326;52.124;5.424;2024-01-11T02:01:47;10.32;;;3.45;;
71975;SDS011;68326;52.124;5.424;2024-01-11T02:04:14;12.10;;;3.73;;
71975;SDS011;68326;52.124;5.424;2024-01-11T02:06:41;11.98;;;3.85;;
71975;SDS011;68326;52.124;5.424;2024-01-11T02:09:11;10.38;;;4.25;;
71975;SDS011;68326;52.124;5.424;2024-01-11T02:11:40;11.50;;;3.78;;
71975;SDS011;68326;52.124;5.424;2024-01-11T02:14:07;11.83;;;4.37;;
71975;SDS011;68326;52.124;5.424;2024-01-11T02:16:35;13.15;;;4.28;;
71975;SDS011;68326;52.124;5.424;2024-01-11T02:19:01;9.23;;;3.47;;
71975;SDS011;68326;52.124;5.424;2024-01-11T02:21:29;10.02;;;3.75;;
71975;SDS011;68326;52.124;5.424;2024-01-11T02:24:04;12.00;;;4.32;;
71975;SDS011;68326;52.124;5.424;2024-01-11T02:26:32;15.90;;;4.35;;
71975;SDS011;68326;52.124;5.424;2024-01-11T02:28:59;13.63;;;4.75;;
71975;SDS011;68326;52.124;5.424;2024-01-11T02:31:26;13.10;;;4.40;;
71975;SDS011;68326;52.124;5.424;2024-01-11T02:33:52;15.05;;;4.65;;
71975;SDS011;68326;52.124;5.424;2024-01-11T02:36:20;13.25;;;4.53;;
71975;SDS011;68326;52.124;5.424;2024-01-11T02:38:47;9.50;;;4.35;;
71975;SDS011;68326;52.124;5.424;2024-01-11T02:41:16;11.97;;;4.33;;
71975;SDS011;68326;52.124;5.424;2024-01-11T02:43:48;12.55;;;4.30;;
71975;SDS011;68326;52.124;5.424;2024-01-11T02:46:15;12.25;;;3.55;;
71975;SDS011;68326;52.124;5.424;2024-01-11T02:48:43;10.75;;;4.10;;
71975;SDS011;68326;52.124;5.424;2024-01-11T02:51:10;13.30;;;4.27;;
71975;SDS011;68326;52.124;5.424;2024-01-11T02:53:36;12.55;;;4.05;;
71975;SDS011;68326;52.124;5.424;2024-01-11T02:56:03;12.68;;;4.45;;
71975;SDS011;68326;52.124;5.424;2024-01-11T02:58:30;10.77;;;4.57;;
71975;SDS011;68326;52.124;5.424;2024-01-11T03:00:57;16.20;;;5.10;;
71975;SDS011;68326;52.124;5.424;2024-01-11T03:03:23;15.57;;;4.93;;
71975;SDS011;68326;52.124;5.424;2024-01-11T03:05:50;11.13;;;4.53;;
71975;SDS011;68326;52.124;5.424;2024-01-11T03:08:16;14.45;;;5.28;;
71975;SDS011;68326;52.124;5.424;2024-01-11T03:10:43;12.93;;;5.33;;
71975;SDS011;68326;52.124;5.424;2024-01-11T03:13:09;12.65;;;4.35;;
71975;SDS011;68326;52.124;5.424;2024-01-11T03:15:36;12.80;;;5.07;;
71975;SDS011;68326;52.124;5.424;2024-01-11T03:18:02;10.13;;;4.53;;
71975;SDS011;68326;52.124;5.424;2024-01-11T03:20:30;15.63;;;5.23;;
71975;SDS011;68326;52.124;5.424;2024-01-11T03:22:56;15.88;;;5.28;;
71975;SDS011;68326;52.124;5.424;2024-01-11T03:25:23;15.65;;;5.32;;
71975;SDS011;68326;52.124;5.424;2024-01-11T03:27:50;15.73;;;5.38;;
71975;SDS011;68326;52.124;5.424;2024-01-11T03:30:16;17.40;;;5.75;;
71975;SDS011;68326;52.124;5.424;2024-01-11T03:32:43;18.02;;;6.07;;
71975;SDS011;68326;52.124;5.424;2024-01-11T03:35:10;14.93;;;5.20;;
71975;SDS011;68326;52.124;5.424;2024-01-11T03:37:37;17.43;;;6.40;;
71975;SDS011;68326;52.124;5.424;2024-01-11T03:40:03;16.77;;;6.00;;
71975;SDS011;68326;52.124;5.424;2024-01-11T03:42:31;18.02;;;5.93;;
71975;SDS011;68326;52.124;5.424;2024-01-11T03:44:57;15.35;;;5.53;;
71975;SDS011;68326;52.124;5.424;2024-01-11T03:47:24;17.53;;;6.77;;
71975;SDS011;68326;52.124;5.424;2024-01-11T03:49:50;21.65;;;7.13;;
71975;SDS011;68326;52.124;5.424;2024-01-11T03:52:17;20.23;;;7.03;;
71975;SDS011;68326;52.124;5.424;2024-01-11T03:54:43;15.77;;;6.03;;
71975;SDS011;68326;52.124;5.424;2024-01-11T03:57:10;16.80;;;6.63;;
71975;SDS011;68326;52.124;5.424;2024-01-11T03:59:36;19.63;;;7.55;;
71975;SDS011;68326;52.124;5.424;2024-01-11T04:02:03;17.13;;;6.50;;
71975;SDS011;68326;52.124;5.424;2024-01-11T04:04:30;20.65;;;7.35;;
71975;SDS011;68326;52.124;5.424;2024-01-11T04:06:56;19.55;;;7.25;;
71975;SDS011;68326;52.124;5.424;2024-01-11T04:09:23;19.23;;;7.28;;
71975;SDS011;68326;52.124;5.424;2024-01-11T04:11:49;23.05;;;7.85;;
71975;SDS011;68326;52.124;5.424;2024-01-11T04:14:16;19.10;;;6.40;;
71975;SDS011;68326;52.124;5.424;2024-01-11T04:16:43;25.15;;;7.53;;
71975;SDS011;68326;52.124;5.424;2024-01-11T04:19:09;18.02;;;7.40;;
71975;SDS011;68326;52.124;5.424;2024-01-11T04:21:36;21.80;;;7.78;;
71975;SDS011;68326;52.124;5.424;2024-01-11T04:24:06;22.77;;;7.78;;
71975;SDS011;68326;52.124;5.424;2024-01-11T04:26:34;20.55;;;7.20;;
71975;SDS011;68326;52.124;5.424;2024-01-11T04:29:01;21.45;;;7.85;;
71975;SDS011;68326;52.124;5.424;2024-01-11T04:31:28;25.63;;;8.43;;
71975;SDS011;68326;52.124;5.424;2024-01-11T04:33:55;23.50;;;8.32;;
71975;SDS011;68326;52.124;5.424;2024-01-11T04:36:21;19.10;;;7.00;;
71975;SDS011;68326;52.124;5.424;2024-01-11T04:38:48;23.45;;;8.75;;
71975;SDS011;68326;52.124;5.424;2024-01-11T04:41:14;18.53;;;7.37;;
71975;SDS011;68326;52.124;5.424;2024-01-11T04:43:43;20.00;;;8.05;;
71975;SDS011;68326;52.124;5.424;2024-01-11T04:46:17;19.85;;;8.25;;
71975;SDS011;68326;52.124;5.424;2024-01-11T04:48:45;18.95;;;7.07;;
71975;SDS011;68326;52.124;5.424;2024-01-11T04:51:12;19.27;;;6.50;;
71975;SDS011;68326;52.124;5.424;2024-01-11T04:53:40;21.73;;;7.78;;
71975;SDS011;68326;52.124;5.424;2024-01-11T04:56:07;24.20;;;8.13;;
71975;SDS011;68326;52.124;5.424;2024-01-11T04:58:35;21.90;;;8.00;;
71975;SDS011;68326;52.124;5.424;2024-01-11T05:01:04;19.83;;;7.53;;
71975;SDS011;68326;52.124;5.424;2024-01-11T05:03:32;21.45;;;8.43;;
71975;SDS011;68326;52.124;5.424;2024-01-11T05:05:59;17.95;;;7.88;;
71975;SDS011;68326;52.124;5.424;2024-01-11T05:08:26;27.05;;;8.65;;
71975;SDS011;68326;52.124;5.424;2024-01-11T05:10:53;20.98;;;8.18;;
71975;SDS011;68326;52.124;5.424;2024-01-11T05:13:19;27.13;;;8.73;;
71975;SDS011;68326;52.124;5.424;2024-01-11T05:15:46;23.97;;;7.83;;
71975;SDS011;68326;52.124;5.424;2024-01-11T05:18:13;22.08;;;8.55;;
71975;SDS011;68326;52.124;5.424;2024-01-11T05:20:40;19.00;;;7.97;;
71975;SDS011;68326;52.124;5.424;2024-01-11T05:23:07;22.83;;;8.20;;
71975;SDS011;68326;52.124;5.424;2024-01-11T05:25:34;21.80;;;7.60;;
71975;SDS011;68326;52.124;5.424;2024-01-11T05:28:01;23.83;;;7.82;;
71975;SDS011;68326;52.124;5.424;2024-01-11T05:30:29;21.40;;;7.97;;
71975;SDS011;68326;52.124;5.424;2024-01-11T05:32:56;23.40;;;8.27;;
71975;SDS011;68326;52.124;5.424;2024-01-11T05:35:23;23.23;;;8.48;;
71975;SDS011;68326;52.124;5.424;2024-01-11T05:37:50;23.55;;;7.97;;
71975;SDS011;68326;52.124;5.424;2024-01-11T05:40:17;20.67;;;8.25;;
71975;SDS011;68326;52.124;5.424;2024-01-11T05:42:43;25.45;;;9.48;;
71975;SDS011;68326;52.124;5.424;2024-01-11T05:45:09;23.08;;;7.55;;
71975;SDS011;68326;52.124;5.424;2024-01-11T05:47:36;18.52;;;7.50;;
71975;SDS011;68326;52.124;5.424;2024-01-11T05:50:03;25.10;;;8.17;;
71975;SDS011;68326;52.124;5.424;2024-01-11T05:52:31;25.02;;;8.00;;
71975;SDS011;68326;52.124;5.424;2024-01-11T05:54:58;20.95;;;8.50;;
71975;SDS011;68326;52.124;5.424;2024-01-11T05:57:24;19.40;;;7.78;;
71975;SDS011;68326;52.124;5.424;2024-01-11T05:59:51;24.47;;;8.27;;
71975;SDS011;68326;52.124;5.424;2024-01-11T06:02:17;20.88;;;7.47;;
71975;SDS011;68326;52.124;5.424;2024-01-11T06:04:44;22.00;;;9.07;;
71975;SDS011;68326;52.124;5.424;2024-01-11T06:07:14;21.23;;;7.97;;
71975;SDS011;68326;52.124;5.424;2024-01-11T06:09:40;23.13;;;8.10;;
71975;SDS011;68326;52.124;5.424;2024-01-11T06:12:07;20.85;;;7.50;;
71975;SDS011;68326;52.124;5.424;2024-01-11T06:14:35;23.20;;;8.45;;
71975;SDS011;68326;52.124;5.424;2024-01-11T06:17:02;28.33;;;9.50;;
71975;SDS011;68326;52.124;5.424;2024-01-11T06:19:28;23.70;;;8.67;;
71975;SDS011;68326;52.124;5.424;2024-01-11T06:21:55;22.40;;;8.88;;
71975;SDS011;68326;52.124;5.424;2024-01-11T06:24:21;25.20;;;9.15;;
71975;SDS011;68326;52.124;5.424;2024-01-11T06:26:48;22.53;;;8.27;;
71975;SDS011;68326;52.124;5.424;2024-01-11T06:29:14;21.95;;;8.18;;
71975;SDS011;68326;52.124;5.424;2024-01-11T06:31:41;22.85;;;8.38;;
71975;SDS011;68326;52.124;5.424;2024-01-11T06:34:07;26.85;;;8.93;;
71975;SDS011;68326;52.124;5.424;2024-01-11T06:36:34;21.48;;;8.52;;
71975;SDS011;68326;52.124;5.424;2024-01-11T06:39:01;24.30;;;8.63;;
71975;SDS011;68326;52.124;5.424;2024-01-11T06:41:27;24.83;;;8.82;;
71975;SDS011;68326;52.124;5.424;2024-01-11T06:43:54;25.37;;;8.70;;
71975;SDS011;68326;52.124;5.424;2024-01-11T06:46:23;25.67;;;8.95;;
71975;SDS011;68326;52.124;5.424;2024-01-11T06:48:50;25.77;;;9.20;;
71975;SDS011;68326;52.124;5.424;2024-01-11T06:51:20;26.90;;;9.83;;
71975;SDS011;68326;52.124;5.424;2024-01-11T06:53:47;22.20;;;8.85;;
71975;SDS011;68326;52.124;5.424;2024-01-11T06:56:14;19.83;;;8.32;;
71975;SDS011;68326;52.124;5.424;2024-01-11T06:58:46;24.00;;;9.05;;
71975;SDS011;68326;52.124;5.424;2024-01-11T07:01:13;21.53;;;8.73;;
71975;SDS011;68326;52.124;5.424;2024-01-11T07:03:40;24.52;;;8.88;;
71975;SDS011;68326;52.124;5.424;2024-01-11T07:06:06;25.73;;;9.95;;
71975;SDS011;68326;52.124;5.424;2024-01-11T07:08:33;24.20;;;8.67;;
71975;SDS011;68326;52.124;5.424;2024-01-11T07:11:01;28.13;;;9.50;;
71975;SDS011;68326;52.124;5.424;2024-01-11T07:13:31;23.25;;;8.98;;
71975;SDS011;68326;52.124;5.424;2024-01-11T07:15:57;24.48;;;8.95;;
71975;SDS011;68326;52.124;5.424;2024-01-11T07:18:24;24.33;;;8.37;;
71975;SDS011;68326;52.124;5.424;2024-01-11T07:20:52;20.85;;;8.38;;
71975;SDS011;68326;52.124;5.424;2024-01-11T07:23:19;20.58;;;9.25;;
71975;SDS011;68326;52.124;5.424;2024-01-11T07:25:45;25.80;;;8.57;;
71975;SDS011;68326;52.124;5.424;2024-01-11T07:28:12;27.73;;;9.10;;
71975;SDS011;68326;52.124;5.424;2024-01-11T07:30:39;29.90;;;11.02;;
71975;SDS011;68326;52.124;5.424;2024-01-11T07:33:06;22.77;;;8.88;;
71975;SDS011;68326;52.124;5.424;2024-01-11T07:35:34;25.77;;;8.82;;
71975;SDS011;68326;52.124;5.424;2024-01-11T07:38:01;24.60;;;9.35;;
71975;SDS011;68326;52.124;5.424;2024-01-11T07:40:29;26.65;;;10.00;;
71975;SDS011;68326;52.124;5.424;2024-01-11T07:42:58;22.70;;;8.60;;
71975;SDS011;68326;52.124;5.424;2024-01-11T07:45:25;20.85;;;8.63;;
71975;SDS011;68326;52.124;5.424;2024-01-11T07:47:51;26.75;;;9.77;;
71975;SDS011;68326;52.124;5.424;2024-01-11T07:50:18;26.65;;;9.48;;
71975;SDS011;68326;52.124;5.424;2024-01-11T07:52:45;24.13;;;8.77;;
71975;SDS011;68326;52.124;5.424;2024-01-11T07:55:11;27.15;;;9.35;;
71975;SDS011;68326;52.124;5.424;2024-01-11T07:57:39;24.85;;;9.32;;
71975;SDS011;68326;52.124;5.424;2024-01-11T08:00:06;22.83;;;9.50;;
71975;SDS011;68326;52.124;5.424;2024-01-11T08:02:33;30.58;;;10.25;;
71975;SDS011;68326;52.124;5.424;2024-01-11T08:05:00;26.92;;;9.40;;
71975;SDS011;68326;52.124;5.424;2024-01-11T08:07:27;28.13;;;9.82;;
71975;SDS011;68326;52.124;5.424;2024-01-11T08:09:54;24.92;;;9.48;;
71975;SDS011;68326;52.124;5.424;2024-01-11T08:12:21;25.90;;;9.65;;
71975;SDS011;68326;52.124;5.424;2024-01-11T08:14:48;36.03;;;10.07;;
71975;SDS011;68326;52.124;5.424;2024-01-11T08:17:15;23.40;;;9.17;;
71975;SDS011;68326;52.124;5.424;2024-01-11T08:19:41;31.65;;;11.02;;
71975;SDS011;68326;52.124;5.424;2024-01-11T08:22:09;26.95;;;9.05;;
71975;SDS011;68326;52.124;5.424;2024-01-11T08:24:37;26.17;;;9.77;;
71975;SDS011;68326;52.124;5.424;2024-01-11T08:27:04;29.03;;;10.43;;
71975;SDS011;68326;52.124;5.424;2024-01-11T08:29:32;28.10;;;9.30;;
71975;SDS011;68326;52.124;5.424;2024-01-11T08:31:59;25.55;;;9.57;;
71975;SDS011;68326;52.124;5.424;2024-01-11T08:34:49;28.05;;;10.27;;
71975;SDS011;68326;52.124;5.424;2024-01-11T08:37:16;28.40;;;9.77;;
71975;SDS011;68326;52.124;5.424;2024-01-11T08:39:42;25.80;;;9.95;;
71975;SDS011;68326;52.124;5.424;2024-01-11T08:42:09;28.08;;;9.80;;
71975;SDS011;68326;52.124;5.424;2024-01-11T08:44:35;29.17;;;10.50;;
71975;SDS011;68326;52.124;5.424;2024-01-11T08:47:02;24.33;;;9.33;;
71975;SDS011;68326;52.124;5.424;2024-01-11T08:49:30;28.33;;;10.52;;
71975;SDS011;68326;52.124;5.424;2024-01-11T08:51:56;32.17;;;11.32;;
71975;SDS011;68326;52.124;5.424;2024-01-11T08:54:23;25.52;;;10.73;;
71975;SDS011;68326;52.124;5.424;2024-01-11T08:56:49;23.33;;;9.13;;
71975;SDS011;68326;52.124;5.424;2024-01-11T08:59:16;29.20;;;10.30;;
71975;SDS011;68326;52.124;5.424;2024-01-11T09:01:43;31.80;;;10.90;;
71975;SDS011;68326;52.124;5.424;2024-01-11T09:04:22;27.27;;;10.10;;
71975;SDS011;68326;52.124;5.424;2024-01-11T09:06:49;29.10;;;10.13;;
71975;SDS011;68326;52.124;5.424;2024-01-11T09:09:15;28.75;;;9.88;;
71975;SDS011;68326;52.124;5.424;2024-01-11T09:11:43;25.60;;;9.85;;
71975;SDS011;68326;52.124;5.424;2024-01-11T09:14:10;31.85;;;10.15;;
71975;SDS011;68326;52.124;5.424;2024-01-11T09:16:37;30.73;;;10.43;;
71975;SDS011;68326;52.124;5.424;2024-01-11T09:19:06;32.70;;;10.10;;
71975;SDS011;68326;52.124;5.424;2024-01-11T09:21:32;32.60;;;11.77;;
71975;SDS011;68326;52.124;5.424;2024-01-11T09:23:59;26.48;;;9.75;;
71975;SDS011;68326;52.124;5.424;2024-01-11T09:26:25;25.15;;;9.00;;
71975;SDS011;68326;52.124;5.424;2024-01-11T09:28:52;24.67;;;8.70;;
71975;SDS011;68326;52.124;5.424;2024-01-11T09:31:18;26.55;;;7.90;;
71975;SDS011;68326;52.124;5.424;2024-01-11T09:33:45;24.42;;;7.32;;
71975;SDS011;68326;52.124;5.424;2024-01-11T09:36:12;26.35;;;9.00;;
71975;SDS011;68326;52.124;5.424;2024-01-11T09:38:39;23.87;;;7.47;;
71975;SDS011;68326;52.124;5.424;2024-01-11T09:41:07;22.98;;;7.72;;
71975;SDS011;68326;52.124;5.424;2024-01-11T09:43:38;24.42;;;7.90;;
71975;SDS011;68326;52.124;5.424;2024-01-11T09:46:07;28.25;;;8.30;;
71975;SDS011;68326;52.124;5.424;2024-01-11T09:48:35;26.05;;;7.88;;
71975;SDS011;68326;52.124;5.424;2024-01-11T09:51:06;23.43;;;7.73;;
71975;SDS011;68326;52.124;5.424;2024-01-11T09:53:36;23.63;;;7.28;;
71975;SDS011;68326;52.124;5.424;2024-01-11T09:56:06;26.55;;;7.97;;
71975;SDS011;68326;52.124;5.424;2024-01-11T09:58:35;23.67;;;7.80;;
71975;SDS011;68326;52.124;5.424;2024-01-11T10:01:03;26.38;;;7.70;;
71975;SDS011;68326;52.124;5.424;2024-01-11T10:03:35;24.63;;;7.97;;
71975;SDS011;68326;52.124;5.424;2024-01-11T10:06:01;22.48;;;7.70;;
71975;SDS011;68326;52.124;5.424;2024-01-11T10:08:29;23.35;;;7.80;;
71975;SDS011;68326;52.124;5.424;2024-01-11T10:10:56;20.90;;;7.22;;
71975;SDS011;68326;52.124;5.424;2024-01-11T10:13:27;24.85;;;8.13;;
71975;SDS011;68326;52.124;5.424;2024-01-11T10:16:04;21.90;;;6.77;;
71975;SDS011;68326;52.124;5.424;2024-01-11T10:18:36;23.63;;;7.15;;
71975;SDS011;68326;52.124;5.424;2024-01-11T10:21:03;23.63;;;7.10;;
71975;SDS011;68326;52.124;5.424;2024-01-11T10:23:32;22.48;;;7.22;;
71975;SDS011;68326;52.124;5.424;2024-01-11T10:25:59;24.70;;;8.10;;
71975;SDS011;68326;52.124;5.424;2024-01-11T10:28:26;23.33;;;7.50;;
71975;SDS011;68326;52.124;5.424;2024-01-11T10:30:53;23.73;;;6.85;;
71975;SDS011;68326;52.124;5.424;2024-01-11T10:33:20;20.30;;;6.70;;
71975;SDS011;68326;52.124;5.424;2024-01-11T10:35:48;24.23;;;7.22;;
71975;SDS011;68326;52.124;5.424;2024-01-11T10:38:16;25.38;;;7.70;;
71975;SDS011;68326;52.124;5.424;2024-01-11T10:40:43;27.63;;;6.40;;
71975;SDS011;68326;52.124;5.424;2024-01-11T10:43:10;20.55;;;6.85;;
71975;SDS011;68326;52.124;5.424;2024-01-11T10:45:38;23.65;;;7.15;;
71975;SDS011;68326;52.124;5.424;2024-01-11T10:48:14;22.00;;;7.25;;
71975;SDS011;68326;52.124;5.424;2024-01-11T10:50:43;25.08;;;7.43;;
71975;SDS011;68326;52.124;5.424;2024-01-11T10:56:09;25.77;;;7.72;;
71975;SDS011;68326;52.124;5.424;2024-01-11T10:58:41;22.25;;;7.22;;
71975;SDS011;68326;52.124;5.424;2024-01-11T11:01:09;24.33;;;7.10;;
71975;SDS011;68326;52.124;5.424;2024-01-11T11:03:37;22.45;;;6.95;;
71975;SDS011;68326;52.124;5.424;2024-01-11T11:06:06;23.17;;;6.33;;
71975;SDS011;68326;52.124;5.424;2024-01-11T11:08:33;24.13;;;7.20;;
71975;SDS011;68326;52.124;5.424;2024-01-11T11:11:01;23.75;;;7.40;;
71975;SDS011;68326;52.124;5.424;2024-01-11T11:13:33;25.08;;;6.53;;
71975;SDS011;68326;52.124;5.424;2024-01-11T11:16:03;24.15;;;7.47;;
71975;SDS011;68326;52.124;5.424;2024-01-11T11:18:30;18.17;;;6.20;;
71975;SDS011;68326;52.124;5.424;2024-01-11T11:20:59;23.75;;;7.05;;
71975;SDS011;68326;52.124;5.424;2024-01-11T11:23:26;23.75;;;6.68;;
71975;SDS011;68326;52.124;5.424;2024-01-11T11:25:54;17.17;;;5.65;;
71975;SDS011;68326;52.124;5.424;2024-01-11T11:28:23;28.10;;;7.85;;
71975;SDS011;68326;52.124;5.424;2024-01-11T11:30:51;18.80;;;6.20;;
71975;SDS011;68326;52.124;5.424;2024-01-11T11:33:20;21.17;;;6.70;;
71975;SDS011;68326;52.124;5.424;2024-01-11T11:35:54;22.00;;;6.80;;
71975;SDS011;68326;52.124;5.424;2024-01-11T11:38:25;19.50;;;6.68;;
71975;SDS011;68326;52.124;5.424;2024-01-11T11:40:53;19.52;;;6.80;;
71975;SDS011;68326;52.124;5.424;2024-01-11T11:43:22;19.47;;;6.53;;
71975;SDS011;68326;52.124;5.424;2024-01-11T11:45:50;22.80;;;6.53;;
71975;SDS011;68326;52.124;5.424;2024-01-11T11:53:35;21.77;;;7.53;;
71975;SDS011;68326;52.124;5.424;2024-01-11T11:56:03;23.77;;;8.40;;
71975;SDS011;68326;52.124;5.424;2024-01-11T11:58:31;19.40;;;6.88;;
71975;SDS011;68326;52.124;5.424;2024-01-11T12:00:59;17.98;;;6.18;;
71975;SDS011;68326;52.124;5.424;2024-01-11T12:05:58;19.40;;;6.95;;
71975;SDS011;68326;52.124;5.424;2024-01-11T12:08:26;22.80;;;6.90;;
71975;SDS011;68326;52.124;5.424;2024-01-11T12:10:54;20.88;;;7.10;;
71975;SDS011;68326;52.124;5.424;2024-01-11T12:13:20;18.63;;;6.47;;
71975;SDS011;68326;52.124;5.424;2024-01-11T12:15:47;17.80;;;6.63;;
71975;SDS011;68326;52.124;5.424;2024-01-11T12:18:14;19.73;;;6.07;;
71975;SDS011;68326;52.124;5.424;2024-01-11T12:20:41;20.83;;;6.63;;
71975;SDS011;68326;52.124;5.424;2024-01-11T12:23:08;15.57;;;5.90;;
71975;SDS011;68326;52.124;5.424;2024-01-11T12:25:35;17.00;;;6.82;;
71975;SDS011;68326;52.124;5.424;2024-01-11T12:28:02;19.70;;;6.43;;
71975;SDS011;68326;52.124;5.424;2024-01-11T12:30:29;18.58;;;6.63;;
71975;SDS011;68326;52.124;5.424;2024-01-11T12:32:56;14.77;;;5.70;;
71975;SDS011;68326;52.124;5.424;2024-01-11T12:35:23;22.58;;;5.57;;
71975;SDS011;68326;52.124;5.424;2024-01-11T12:40:21;19.90;;;5.90;;
71975;SDS011;68326;52.124;5.424;2024-01-11T12:42:48;18.65;;;6.38;;
71975;SDS011;68326;52.124;5.424;2024-01-11T12:45:16;23.00;;;5.87;;
71975;SDS011;68326;52.124;5.424;2024-01-11T12:47:43;19.48;;;6.40;;
71975;SDS011;68326;52.124;5.424;2024-01-11T12:50:11;18.52;;;6.13;;
71975;SDS011;68326;52.124;5.424;2024-01-11T12:52:41;20.13;;;6.88;;
71975;SDS011;68326;52.124;5.424;2024-01-11T12:55:13;18.52;;;6.85;;
71975;SDS011;68326;52.124;5.424;2024-01-11T12:57:44;21.97;;;7.30;;
71975;SDS011;68326;52.124;5.424;2024-01-11T13:00:12;17.88;;;6.35;;
71975;SDS011;68326;52.124;5.424;2024-01-11T13:02:39;18.98;;;6.68;;
71975;SDS011;68326;52.124;5.424;2024-01-11T13:05:06;17.40;;;5.63;;
71975;SDS011;68326;52.124;5.424;2024-01-11T13:07:36;20.88;;;5.93;;
71975;SDS011;68326;52.124;5.424;2024-01-11T13:10:03;18.37;;;6.00;;
71975;SDS011;68326;52.124;5.424;2024-01-11T13:12:30;18.65;;;6.40;;
71975;SDS011;68326;52.124;5.424;2024-01-11T13:14:57;20.10;;;5.82;;
71975;SDS011;68326;52.124;5.424;2024-01-11T13:17:23;19.90;;;5.75;;
71975;SDS011;68326;52.124;5.424;2024-01-11T13:19:50;15.25;;;6.32;;
71975;SDS011;68326;52.124;5.424;2024-01-11T13:22:17;15.07;;;5.70;;
71975;SDS011;68326;52.124;5.424;2024-01-11T13:24:44;17.30;;;6.50;;
71975;SDS011;68326;52.124;5.424;2024-01-11T13:27:10;17.88;;;6.30;;
71975;SDS011;68326;52.124;5.424;2024-01-11T13:29:37;19.67;;;5.75;;
71975;SDS011;68326;52.124;5.424;2024-01-11T13:32:04;15.27;;;5.40;;
71975;SDS011;68326;52.124;5.424;2024-01-11T13:34:32;16.23;;;5.43;;
71975;SDS011;68326;52.124;5.424;2024-01-11T13:36:58;17.55;;;5.60;;
71975;SDS011;68326;52.124;5.424;2024-01-11T13:39:26;14.25;;;5.90;;
71975;SDS011;68326;52.124;5.424;2024-01-11T13:41:52;17.55;;;5.85;;
71975;SDS011;68326;52.124;5.424;2024-01-11T13:44:19;17.10;;;5.95;;
71975;SDS011;68326;52.124;5.424;2024-01-11T13:46:50;16.10;;;5.40;;
71975;SDS011;68326;52.124;5.424;2024-01-11T13:49:16;18.83;;;6.25;;
71975;SDS011;68326;52.124;5.424;2024-01-11T13:51:43;21.88;;;6.43;;
71975;SDS011;68326;52.124;5.424;2024-01-11T13:54:25;16.48;;;5.78;;
71975;SDS011;68326;52.124;5.424;2024-01-11T13:56:51;14.45;;;5.13;;
71975;SDS011;68326;52.124;5.424;2024-01-11T13:59:18;19.33;;;6.07;;
71975;SDS011;68326;52.124;5.424;2024-01-11T14:01:46;18.35;;;6.10;;
71975;SDS011;68326;52.124;5.424;2024-01-11T14:04:13;19.95;;;6.60;;
71975;SDS011;68326;52.124;5.424;2024-01-11T14:06:39;18.83;;;6.70;;
71975;SDS011;68326;52.124;5.424;2024-01-11T14:09:06;18.40;;;5.85;;
71975;SDS011;68326;52.124;5.424;2024-01-11T14:11:35;15.23;;;5.67;;
71975;SDS011;68326;52.124;5.424;2024-01-11T14:14:02;13.85;;;5.47;;
71975;SDS011;68326;52.124;5.424;2024-01-11T14:16:29;15.25;;;5.47;;
71975;SDS011;68326;52.124;5.424;2024-01-11T14:18:56;14.93;;;5.97;;
71975;SDS011;68326;52.124;5.424;2024-01-11T14:21:23;17.98;;;5.85;;
71975;SDS011;68326;52.124;5.424;2024-01-11T14:23:50;16.27;;;5.33;;
71975;SDS011;68326;52.124;5.424;2024-01-11T14:26:17;17.38;;;6.00;;
71975;SDS011;68326;52.124;5.424;2024-01-11T14:28:44;13.80;;;5.00;;
71975;SDS011;68326;52.124;5.424;2024-01-11T14:31:11;13.73;;;5.43;;
71975;SDS011;68326;52.124;5.424;2024-01-11T14:33:37;18.30;;;6.05;;
71975;SDS011;68326;52.124;5.424;2024-01-11T14:36:04;17.93;;;5.43;;
71975;SDS011;68326;52.124;5.424;2024-01-11T14:38:31;16.23;;;5.85;;
71975;SDS011;68326;52.124;5.424;2024-01-11T14:40:57;14.88;;;5.05;;
71975;SDS011;68326;52.124;5.424;2024-01-11T14:43:24;17.92;;;5.68;;
71975;SDS011;68326;52.124;5.424;2024-01-11T14:45:50;14.55;;;5.00;;
71975;SDS011;68326;52.124;5.424;2024-01-11T14:48:19;18.93;;;6.53;;